PRIVATE WETTERSTATION BILLIGHEIM-ALLFELD                       ZURCK
Wetterdaten: Donnerstag, 14.04.2022
Datum Zeit Temp. A. Temp. A. min Temp. A. max Feuchte A. Luftdruck Regen Wind Richtung Richtung Sonnenschein ET Solar Taupunkt Windchill Windben Empfang
14.04.2022 00:00 12,2 C 12,2 C 12,8 C 76 % 1015,1 hPa 0,0 l/m 6,4 km/h (2 Bft) N-NW 333 0 min 0,000 mm 0 W/m 8,1 C 12,2 C 11,3 km/h (2 Bft) 100 %
14.04.2022 00:10 11,7 C 11,7 C 12,2 C 78 % 1015,1 hPa 0,0 l/m 3,6 km/h (1 Bft) N-NW 344 0 min 0,000 mm 0 W/m 8,0 C 11,7 C 6,4 km/h (2 Bft) 100 %
14.04.2022 00:20 11,6 C 11,6 C 11,7 C 78 % 1015,1 hPa 0,0 l/m 1,0 km/h (0 Bft) N-NW 344 0 min 0,000 mm 0 W/m 7,9 C 11,6 C 4,8 km/h (1 Bft) 100 %
14.04.2022 00:30 11,6 C 11,6 C 11,7 C 77 % 1015,0 hPa 0,0 l/m 0,0 km/h (0 Bft) N-NW 344 0 min 0,000 mm 0 W/m 7,7 C 11,6 C 0,0 km/h (0 Bft) 100 %
14.04.2022 00:40 11,7 C 11,6 C 11,7 C 76 % 1015,0 hPa 0,0 l/m 0,0 km/h (0 Bft) N-NW 344 0 min 0,000 mm 0 W/m 7,6 C 11,7 C 0,0 km/h (0 Bft) 100 %
14.04.2022 00:50 11,4 C 11,4 C 11,7 C 78 % 1015,0 hPa 0,0 l/m 1,5 km/h (1 Bft) N-NW 344 0 min 0,000 mm 0 W/m 7,7 C 11,4 C 4,8 km/h (1 Bft) 100 %
14.04.2022 01:00 11,0 C 11,0 C 11,4 C 79 % 1015,0 hPa 0,0 l/m 0,0 km/h (0 Bft) N-NW 344 0 min 0,025 mm 0 W/m 7,5 C 11,0 C 1,6 km/h (1 Bft) 100 %
14.04.2022 01:10 10,6 C 10,6 C 11,0 C 81 % 1015,0 hPa 0,0 l/m 0,5 km/h (0 Bft) N-NW 346 0 min 0,000 mm 0 W/m 7,5 C 10,6 C 4,8 km/h (1 Bft) 100 %
14.04.2022 01:20 10,3 C 10,3 C 10,6 C 82 % 1015,1 hPa 0,0 l/m 2,9 km/h (1 Bft) N-NW 346 0 min 0,000 mm 0 W/m 7,4 C 10,3 C 4,8 km/h (1 Bft) 100 %
14.04.2022 01:30 10,3 C 10,3 C 10,3 C 81 % 1015,0 hPa 0,0 l/m 0,0 km/h (0 Bft) N-NW 346 0 min 0,000 mm 0 W/m 7,2 C 10,3 C 0,0 km/h (0 Bft) 100 %
14.04.2022 01:40 10,7 C 10,3 C 10,7 C 80 % 1015,0 hPa 0,0 l/m 0,0 km/h (0 Bft) N-NW 346 0 min 0,000 mm 0 W/m 7,4 C 10,7 C 0,0 km/h (0 Bft) 100 %
14.04.2022 01:50 10,7 C 10,7 C 10,7 C 80 % 1015,0 hPa 0,0 l/m 0,0 km/h (0 Bft) N-NW 346 0 min 0,000 mm 0 W/m 7,4 C 10,7 C 1,6 km/h (1 Bft) 100 %
14.04.2022 02:00 10,4 C 10,4 C 10,7 C 81 % 1015,0 hPa 0,0 l/m 0,0 km/h (0 Bft) N-NW 346 0 min 0,026 mm 0 W/m 7,3 C 10,4 C 0,0 km/h (0 Bft) 100 %
14.04.2022 02:10 10,2 C 10,2 C 10,4 C 81 % 1015,0 hPa 0,0 l/m 0,0 km/h (0 Bft) N-NW 346 0 min 0,000 mm 0 W/m 7,1 C 10,2 C 0,0 km/h (0 Bft) 100 %
14.04.2022 02:20 10,0 C 10,0 C 10,2 C 82 % 1014,9 hPa 0,0 l/m 0,0 km/h (0 Bft) N-NW 346 0 min 0,000 mm 0 W/m 7,1 C 10,0 C 1,6 km/h (1 Bft) 100 %
14.04.2022 02:30 10,1 C 10,0 C 10,1 C 82 % 1014,9 hPa 0,0 l/m 0,0 km/h (0 Bft) N-NW 346 0 min 0,000 mm 0 W/m 7,2 C 10,1 C 0,0 km/h (0 Bft) 100 %
14.04.2022 02:40 10,0 C 10,0 C 10,1 C 82 % 1015,0 hPa 0,0 l/m 0,0 km/h (0 Bft) N-NW 346 0 min 0,000 mm 0 W/m 7,1 C 10,0 C 1,6 km/h (1 Bft) 100 %
14.04.2022 02:50 9,6 C 9,6 C 10,0 C 83 % 1014,9 hPa 0,0 l/m 0,0 km/h (0 Bft) N-NW 346 0 min 0,000 mm 0 W/m 6,9 C 9,6 C 0,0 km/h (0 Bft) 100 %
14.04.2022 03:00 9,3 C 9,3 C 9,6 C 84 % 1015,0 hPa 0,0 l/m 0,0 km/h (0 Bft) N-NW 346 0 min 0,000 mm 0 W/m 6,7 C 9,3 C 0,0 km/h (0 Bft) 99 %
14.04.2022 03:10 9,1 C 9,1 C 9,3 C 84 % 1015,0 hPa 0,0 l/m 0,0 km/h (0 Bft) N-NW 346 0 min 0,000 mm 0 W/m 6,5 C 9,1 C 0,0 km/h (0 Bft) 99 %
14.04.2022 03:20 8,8 C 8,8 C 9,1 C 85 % 1015,3 hPa 0,0 l/m 2,2 km/h (1 Bft) N-NW 346 0 min 0,000 mm 0 W/m 6,4 C 8,8 C 4,8 km/h (1 Bft) 100 %
14.04.2022 03:30 8,6 C 8,6 C 8,8 C 87 % 1015,3 hPa 0,0 l/m 0,0 km/h (0 Bft) N-NW 346 0 min 0,000 mm 0 W/m 6,6 C 8,6 C 1,6 km/h (1 Bft) 100 %
14.04.2022 03:40 8,8 C 8,6 C 8,8 C 87 % 1015,4 hPa 0,0 l/m 0,0 km/h (0 Bft) N-NW 346 0 min 0,000 mm 0 W/m 6,8 C 8,8 C 0,0 km/h (0 Bft) 100 %
14.04.2022 03:50 8,8 C 8,8 C 8,8 C 86 % 1015,4 hPa 0,0 l/m 0,0 km/h (0 Bft) N-NW 346 0 min 0,000 mm 0 W/m 6,6 C 8,8 C 0,0 km/h (0 Bft) 99 %
14.04.2022 04:00 8,7 C 8,7 C 8,8 C 86 % 1015,4 hPa 0,0 l/m 0,0 km/h (0 Bft) N-NW 346 0 min 0,000 mm 0 W/m 6,5 C 8,7 C 0,0 km/h (0 Bft) 97 %
14.04.2022 04:10 8,6 C 8,6 C 8,7 C 87 % 1015,5 hPa 0,0 l/m 0,0 km/h (0 Bft) N-NW 346 0 min 0,000 mm 0 W/m 6,6 C 8,6 C 0,0 km/h (0 Bft) 98 %
14.04.2022 04:20 8,4 C 8,4 C 8,6 C 86 % 1015,4 hPa 0,0 l/m 0,4 km/h (0 Bft) N-NW 346 0 min 0,000 mm 0 W/m 6,2 C 8,4 C 6,4 km/h (2 Bft) 97 %
14.04.2022 04:30 8,1 C 8,1 C 8,4 C 86 % 1015,7 hPa 0,0 l/m 3,9 km/h (1 Bft) N-NW 343 0 min 0,000 mm 0 W/m 5,9 C 8,1 C 9,7 km/h (2 Bft) 98 %
14.04.2022 04:40 7,9 C 7,9 C 8,1 C 88 % 1015,7 hPa 0,0 l/m 2,2 km/h (1 Bft) N-NW 346 0 min 0,000 mm 0 W/m 6,0 C 7,9 C 4,8 km/h (1 Bft) 97 %
14.04.2022 04:50 7,9 C 7,8 C 7,9 C 89 % 1015,8 hPa 0,0 l/m 0,3 km/h (0 Bft) N-NW 346 0 min 0,000 mm 0 W/m 6,2 C 7,9 C 1,6 km/h (1 Bft) 97 %
14.04.2022 05:00 8,1 C 7,9 C 8,1 C 88 % 1015,7 hPa 0,0 l/m 0,0 km/h (0 Bft) N-NW 346 0 min 0,000 mm 0 W/m 6,2 C 8,1 C 0,0 km/h (0 Bft) 98 %
14.04.2022 05:10 7,9 C 7,9 C 8,1 C 87 % 1015,8 hPa 0,0 l/m 0,0 km/h (0 Bft) N-NW 346 0 min 0,000 mm 0 W/m 5,9 C 7,9 C 0,0 km/h (0 Bft) 97 %
14.04.2022 05:20 7,6 C 7,6 C 7,9 C 88 % 1015,8 hPa 0,0 l/m 0,0 km/h (0 Bft) N-NW 346 0 min 0,000 mm 0 W/m 5,7 C 7,6 C 0,0 km/h (0 Bft) 98 %
14.04.2022 05:30 7,4 C 7,4 C 7,6 C 88 % 1015,8 hPa 0,0 l/m 0,0 km/h (0 Bft) N-NW 346 0 min 0,000 mm 0 W/m 5,5 C 7,4 C 0,0 km/h (0 Bft) 97 %
14.04.2022 05:40 7,3 C 7,3 C 7,4 C 89 % 1015,8 hPa 0,0 l/m 0,0 km/h (0 Bft) N-NW 346 0 min 0,000 mm 0 W/m 5,6 C 7,3 C 0,0 km/h (0 Bft) 98 %
14.04.2022 05:50 7,7 C 7,3 C 7,7 C 90 % 1015,8 hPa 0,0 l/m 0,0 km/h (0 Bft) N-NW 346 0 min 0,000 mm 0 W/m 6,2 C 7,7 C 1,6 km/h (1 Bft) 97 %
14.04.2022 06:00 7,8 C 7,7 C 7,8 C 88 % 1015,9 hPa 0,0 l/m 0,0 km/h (0 Bft) N-NW 346 0 min 0,000 mm 0 W/m 5,9 C 7,8 C 0,0 km/h (0 Bft) 98 %
14.04.2022 06:10 7,7 C 7,7 C 7,8 C 88 % 1016,0 hPa 0,0 l/m 0,0 km/h (0 Bft) N-NW 346 0 min 0,000 mm 0 W/m 5,8 C 7,7 C 0,0 km/h (0 Bft) 97 %
14.04.2022 06:20 7,6 C 7,5 C 7,7 C 89 % 1016,1 hPa 0,0 l/m 0,0 km/h (0 Bft) N-NW 346 0 min 0,000 mm 0 W/m 5,9 C 7,6 C 0,0 km/h (0 Bft) 97 %
14.04.2022 06:30 7,5 C 7,5 C 7,6 C 89 % 1016,3 hPa 0,0 l/m 0,0 km/h (0 Bft) N-NW 346 0 min 0,000 mm 0 W/m 5,8 C 7,5 C 0,0 km/h (0 Bft) 89 %
14.04.2022 06:40 7,3 C 7,3 C 7,5 C 89 % 1016,3 hPa 0,0 l/m 0,0 km/h (0 Bft) N-NW 346 0 min 0,000 mm 7 W/m 5,6 C 7,3 C 0,0 km/h (0 Bft) 97 %
14.04.2022 06:50 7,3 C 7,3 C 7,3 C 90 % 1016,5 hPa 0,0 l/m 0,0 km/h (0 Bft) N-NW 346 0 min 0,000 mm 14 W/m 5,8 C 7,3 C 0,0 km/h (0 Bft) 97 %
14.04.2022 07:00 7,3 C 7,3 C 7,3 C 90 % 1016,5 hPa 0,0 l/m 0,0 km/h (0 Bft) N-NW 346 0 min 0,000 mm 19 W/m 5,8 C 7,3 C 0,0 km/h (0 Bft) 98 %
14.04.2022 07:10 7,3 C 7,3 C 7,3 C 90 % 1016,6 hPa 0,0 l/m 0,0 km/h (0 Bft) N-NW 346 0 min 0,000 mm 30 W/m 5,8 C 7,3 C 0,0 km/h (0 Bft) 97 %
14.04.2022 07:20 7,3 C 7,3 C 7,3 C 90 % 1016,7 hPa 0,0 l/m 0,0 km/h (0 Bft) N-NW 346 0 min 0,000 mm 37 W/m 5,8 C 7,3 C 0,0 km/h (0 Bft) 98 %
14.04.2022 07:30 7,4 C 7,3 C 7,4 C 90 % 1016,8 hPa 0,0 l/m 0,0 km/h (0 Bft) N-NW 346 0 min 0,000 mm 44 W/m 5,9 C 7,4 C 0,0 km/h (0 Bft) 97 %
14.04.2022 07:40 7,6 C 7,4 C 7,6 C 91 % 1016,8 hPa 0,0 l/m 0,0 km/h (0 Bft) N-NW 346 0 min 0,000 mm 49 W/m 6,2 C 7,6 C 0,0 km/h (0 Bft) 97 %
14.04.2022 07:50 7,7 C 7,6 C 7,7 C 91 % 1016,8 hPa 0,0 l/m 0,0 km/h (0 Bft) N-NW 346 0 min 0,000 mm 58 W/m 6,3 C 7,7 C 0,0 km/h (0 Bft) 97 %
14.04.2022 08:00 7,8 C 7,7 C 7,8 C 90 % 1016,9 hPa 0,0 l/m 0,0 km/h (0 Bft) N-NW 346 0 min 0,025 mm 65 W/m 6,3 C 7,8 C 0,0 km/h (0 Bft) 98 %
14.04.2022 08:10 8,0 C 7,8 C 8,0 C 91 % 1016,9 hPa 0,0 l/m 0,0 km/h (0 Bft) N-NW 346 0 min 0,000 mm 76 W/m 6,6 C 8,0 C 0,0 km/h (0 Bft) 97 %
14.04.2022 08:20 8,3 C 8,0 C 8,3 C 91 % 1017,0 hPa 0,0 l/m 0,0 km/h (0 Bft) N-NW 346 0 min 0,000 mm 77 W/m 6,9 C 8,3 C 0,0 km/h (0 Bft) 97 %
14.04.2022 08:30 8,5 C 8,2 C 8,5 C 91 % 1017,0 hPa 0,0 l/m 0,0 km/h (0 Bft) N-NW 346 0 min 0,000 mm 105 W/m 7,1 C 8,5 C 0,0 km/h (0 Bft) 98 %
14.04.2022 08:40 8,8 C 8,5 C 8,8 C 91 % 1017,0 hPa 0,0 l/m 0,0 km/h (0 Bft) N-NW 346 10 min 0,000 mm 272 W/m 7,4 C 8,8 C 0,0 km/h (0 Bft) 97 %
14.04.2022 08:50 9,6 C 8,8 C 9,6 C 91 % 1017,0 hPa 0,0 l/m 0,0 km/h (0 Bft) N-NW 346 10 min 0,000 mm 272 W/m 8,2 C 9,6 C 0,0 km/h (0 Bft) 97 %
14.04.2022 09:00 10,5 C 9,6 C 10,5 C 88 % 1017,1 hPa 0,0 l/m 0,0 km/h (0 Bft) N-NW 346 10 min 0,076 mm 309 W/m 8,6 C 10,5 C 0,0 km/h (0 Bft) 89 %
14.04.2022 09:10 11,3 C 10,5 C 11,3 C 87 % 1017,2 hPa 0,0 l/m 0,0 km/h (0 Bft) N-NW 346 10 min 0,000 mm 378 W/m 9,2 C 11,3 C 0,0 km/h (0 Bft) 98 %
14.04.2022 09:20 12,0 C 11,3 C 12,0 C 83 % 1017,2 hPa 0,0 l/m 0,0 km/h (0 Bft) N-NW 346 10 min 0,000 mm 359 W/m 9,2 C 12,0 C 0,0 km/h (0 Bft) 100 %
14.04.2022 09:30 12,8 C 12,0 C 12,8 C 82 % 1017,3 hPa 0,0 l/m 0,0 km/h (0 Bft) N-NW 346 10 min 0,000 mm 425 W/m 9,8 C 12,8 C 0,0 km/h (0 Bft) 100 %
14.04.2022 09:40 13,6 C 12,8 C 13,6 C 80 % 1017,3 hPa 0,0 l/m 0,0 km/h (0 Bft) N-NW 342 10 min 0,000 mm 461 W/m 10,2 C 13,6 C 0,0 km/h (0 Bft) 100 %
14.04.2022 09:50 14,2 C 13,6 C 14,2 C 78 % 1017,4 hPa 0,0 l/m 0,0 km/h (0 Bft) NW 326 10 min 0,000 mm 367 W/m 10,4 C 14,2 C 1,6 km/h (1 Bft) 100 %
14.04.2022 10:00 14,5 C 14,2 C 14,5 C 78 % 1017,5 hPa 0,0 l/m 0,0 km/h (0 Bft) NW 323 10 min 0,204 mm 434 W/m 10,7 C 14,5 C 1,6 km/h (1 Bft) 100 %
14.04.2022 10:10 15,0 C 14,5 C 15,0 C 77 % 1017,5 hPa 0,0 l/m 0,0 km/h (0 Bft) NW 309 10 min 0,000 mm 513 W/m 11,0 C 15,0 C 1,6 km/h (1 Bft) 100 %
14.04.2022 10:20 15,3 C 15,0 C 15,3 C 78 % 1017,5 hPa 0,0 l/m 1,0 km/h (0 Bft) SW 232 10 min 0,000 mm 543 W/m 11,5 C 15,3 C 6,4 km/h (2 Bft) 100 %
14.04.2022 10:30 15,7 C 15,3 C 15,7 C 75 % 1017,6 hPa 0,0 l/m 4,1 km/h (1 Bft) SW 222 10 min 0,000 mm 554 W/m 11,3 C 15,7 C 8,0 km/h (2 Bft) 100 %
14.04.2022 10:40 16,2 C 15,7 C 16,2 C 74 % 1017,6 hPa 0,0 l/m 3,8 km/h (1 Bft) S-SW 211 10 min 0,000 mm 584 W/m 11,6 C 16,2 C 9,7 km/h (2 Bft) 100 %
14.04.2022 10:50 16,4 C 16,2 C 16,4 C 75 % 1017,6 hPa 0,0 l/m 6,1 km/h (2 Bft) S-SW 192 10 min 0,000 mm 643 W/m 12,0 C 16,4 C 11,3 km/h (2 Bft) 100 %
14.04.2022 11:00 16,7 C 16,4 C 16,7 C 74 % 1017,6 hPa 0,0 l/m 4,9 km/h (1 Bft) S-SW 194 10 min 0,304 mm 677 W/m 12,0 C 16,7 C 11,3 km/h (2 Bft) 100 %
14.04.2022 11:10 16,8 C 16,7 C 16,8 C 73 % 1017,7 hPa 0,0 l/m 5,5 km/h (1 Bft) SW 216 10 min 0,000 mm 350 W/m 11,9 C 16,8 C 11,3 km/h (2 Bft) 100 %
14.04.2022 11:20 16,8 C 16,8 C 16,9 C 74 % 1017,7 hPa 0,0 l/m 3,1 km/h (1 Bft) SW 217 10 min 0,000 mm 731 W/m 12,1 C 16,8 C 9,7 km/h (2 Bft) 100 %
14.04.2022 11:30 17,2 C 16,8 C 17,2 C 74 % 1017,6 hPa 0,0 l/m 1,5 km/h (1 Bft) SW 218 10 min 0,000 mm 693 W/m 12,5 C 17,2 C 8,0 km/h (2 Bft) 100 %
14.04.2022 11:40 17,6 C 17,2 C 17,6 C 71 % 1017,7 hPa 0,0 l/m 5,0 km/h (1 Bft) SW 236 10 min 0,000 mm 731 W/m 12,3 C 17,6 C 11,3 km/h (2 Bft) 100 %
14.04.2022 11:50 18,1 C 17,6 C 18,1 C 69 % 1017,6 hPa 0,0 l/m 2,8 km/h (1 Bft) W-NW 288 10 min 0,000 mm 724 W/m 12,3 C 18,1 C 9,7 km/h (2 Bft) 100 %
14.04.2022 12:00 18,6 C 18,1 C 18,6 C 67 % 1017,6 hPa 0,0 l/m 3,0 km/h (1 Bft) W 269 10 min 0,356 mm 703 W/m 12,3 C 18,6 C 8,0 km/h (2 Bft) 100 %
14.04.2022 12:10 18,7 C 18,6 C 18,7 C 66 % 1017,6 hPa 0,0 l/m 1,9 km/h (1 Bft) W-SW 248 10 min 0,000 mm 742 W/m 12,2 C 18,7 C 8,0 km/h (2 Bft) 100 %
14.04.2022 12:20 18,9 C 18,7 C 18,9 C 67 % 1017,6 hPa 0,0 l/m 1,9 km/h (1 Bft) SW 224 10 min 0,000 mm 768 W/m 12,6 C 18,9 C 9,7 km/h (2 Bft) 100 %
14.04.2022 12:30 19,6 C 18,9 C 19,6 C 66 % 1017,6 hPa 0,0 l/m 3,1 km/h (1 Bft) N 355 10 min 0,000 mm 598 W/m 13,1 C 19,6 C 9,7 km/h (2 Bft) 100 %
14.04.2022 12:40 19,8 C 19,6 C 19,8 C 63 % 1017,7 hPa 0,0 l/m 2,1 km/h (1 Bft) W 269 10 min 0,000 mm 733 W/m 12,5 C 19,8 C 14,5 km/h (3 Bft) 99 %
14.04.2022 12:50 19,7 C 19,6 C 19,8 C 64 % 1017,6 hPa 0,0 l/m 5,3 km/h (1 Bft) W-SW 252 10 min 0,000 mm 759 W/m 12,7 C 19,7 C 14,5 km/h (3 Bft) 100 %
14.04.2022 13:00 19,8 C 19,7 C 19,8 C 64 % 1017,6 hPa 0,0 l/m 5,9 km/h (2 Bft) SW 221 10 min 0,406 mm 891 W/m 12,8 C 19,8 C 11,3 km/h (2 Bft) 100 %
14.04.2022 13:10 19,9 C 19,8 C 19,9 C 64 % 1017,5 hPa 0,0 l/m 3,5 km/h (1 Bft) S-SW 210 10 min 0,000 mm 707 W/m 12,9 C 19,9 C 11,3 km/h (2 Bft) 99 %
14.04.2022 13:20 20,4 C 19,9 C 20,4 C 63 % 1017,5 hPa 0,0 l/m 5,1 km/h (1 Bft) W-NW 298 10 min 0,000 mm 512 W/m 13,1 C 20,4 C 11,3 km/h (2 Bft) 97 %
14.04.2022 13:30 20,8 C 20,4 C 20,9 C 62 % 1017,5 hPa 0,0 l/m 5,7 km/h (1 Bft) NW 311 10 min 0,000 mm 392 W/m 13,2 C 20,8 C 11,3 km/h (2 Bft) 98 %
14.04.2022 13:40 20,8 C 20,8 C 20,8 C 60 % 1017,6 hPa 0,0 l/m 6,2 km/h (2 Bft) NW 325 10 min 0,000 mm 385 W/m 12,7 C 20,8 C 16,1 km/h (3 Bft) 97 %
14.04.2022 13:50 20,8 C 20,8 C 20,8 C 61 % 1017,5 hPa 0,0 l/m 3,0 km/h (1 Bft) NW 319 10 min 0,000 mm 425 W/m 13,0 C 20,8 C 9,7 km/h (2 Bft) 97 %
14.04.2022 14:00 21,3 C 20,8 C 21,3 C 60 % 1017,5 hPa 0,0 l/m 4,6 km/h (1 Bft) W 270 10 min 0,356 mm 758 W/m 13,2 C 21,3 C 14,5 km/h (3 Bft) 98 %
14.04.2022 14:10 21,4 C 21,3 C 21,5 C 60 % 1017,4 hPa 0,0 l/m 2,2 km/h (1 Bft) SW 216 10 min 0,000 mm 751 W/m 13,3 C 21,4 C 11,3 km/h (2 Bft) 97 %
14.04.2022 14:20 21,7 C 21,4 C 21,7 C 60 % 1017,4 hPa 0,0 l/m 0,8 km/h (0 Bft) N-NW 342 10 min 0,000 mm 770 W/m 13,6 C 21,7 C 8,0 km/h (2 Bft) 97 %
14.04.2022 14:30 21,6 C 21,6 C 21,7 C 57 % 1017,4 hPa 0,0 l/m 4,0 km/h (1 Bft) NW 311 10 min 0,000 mm 768 W/m 12,7 C 21,6 C 16,1 km/h (3 Bft) 97 %
14.04.2022 14:40 21,8 C 21,6 C 21,8 C 60 % 1017,4 hPa 0,0 l/m 3,7 km/h (1 Bft) NW 309 10 min 0,000 mm 462 W/m 13,7 C 21,8 C 12,9 km/h (3 Bft) 98 %
14.04.2022 14:50 22,3 C 21,8 C 22,3 C 61 % 1017,2 hPa 0,0 l/m 6,2 km/h (2 Bft) NW 325 10 min 0,000 mm 703 W/m 14,4 C 22,3 C 14,5 km/h (3 Bft) 97 %
14.04.2022 15:00 22,4 C 22,3 C 22,4 C 56 % 1017,3 hPa 0,0 l/m 4,9 km/h (1 Bft) NW 312 10 min 0,406 mm 483 W/m 13,2 C 22,4 C 9,7 km/h (2 Bft) 97 %
14.04.2022 15:10 22,2 C 22,2 C 22,4 C 59 % 1017,3 hPa 0,0 l/m 7,2 km/h (2 Bft) NW 308 10 min 0,000 mm 631 W/m 13,8 C 21,9 C 17,7 km/h (3 Bft) 97 %
14.04.2022 15:20 22,1 C 22,1 C 22,2 C 59 % 1017,3 hPa 0,0 l/m 6,1 km/h (2 Bft) W-NW 299 10 min 0,000 mm 299 W/m 13,7 C 22,1 C 11,3 km/h (2 Bft) 97 %
14.04.2022 15:30 21,9 C 21,9 C 22,1 C 60 % 1017,3 hPa 0,0 l/m 5,8 km/h (2 Bft) NW 314 10 min 0,000 mm 663 W/m 13,8 C 21,9 C 17,7 km/h (3 Bft) 98 %
14.04.2022 15:40 22,3 C 21,9 C 22,3 C 60 % 1017,2 hPa 0,0 l/m 4,3 km/h (1 Bft) NW 306 10 min 0,000 mm 404 W/m 14,2 C 22,3 C 11,3 km/h (2 Bft) 97 %
14.04.2022 15:50 22,2 C 22,2 C 22,3 C 57 % 1017,2 hPa 0,0 l/m 8,7 km/h (2 Bft) W-NW 302 10 min 0,000 mm 306 W/m 13,3 C 21,4 C 19,3 km/h (3 Bft) 97 %
14.04.2022 16:00 22,1 C 22,0 C 22,2 C 58 % 1017,2 hPa 0,0 l/m 9,3 km/h (2 Bft) NW 319 10 min 0,331 mm 649 W/m 13,4 C 21,2 C 16,1 km/h (3 Bft) 97 %
14.04.2022 16:10 22,5 C 22,1 C 22,5 C 57 % 1017,2 hPa 0,0 l/m 8,1 km/h (2 Bft) NW 318 10 min 0,000 mm 585 W/m 13,5 C 21,9 C 16,1 km/h (3 Bft) 97 %
14.04.2022 16:20 22,8 C 22,5 C 22,8 C 58 % 1017,1 hPa 0,0 l/m 7,7 km/h (2 Bft) NW 316 10 min 0,000 mm 520 W/m 14,1 C 22,4 C 17,7 km/h (3 Bft) 98 %
14.04.2022 16:30 22,4 C 22,4 C 22,8 C 57 % 1017,2 hPa 0,0 l/m 10,1 km/h (2 Bft) N-NW 329 10 min 0,000 mm 343 W/m 13,5 C 21,3 C 19,3 km/h (3 Bft) 97 %
14.04.2022 16:40 22,2 C 22,2 C 22,4 C 58 % 1017,2 hPa 0,0 l/m 6,6 km/h (2 Bft) NW 316 10 min 0,000 mm 628 W/m 13,5 C 22,1 C 16,1 km/h (3 Bft) 98 %
14.04.2022 16:50 22,7 C 22,2 C 22,7 C 58 % 1017,2 hPa 0,0 l/m 8,3 km/h (2 Bft) NW 317 10 min 0,000 mm 504 W/m 14,0 C 22,1 C 16,1 km/h (3 Bft) 97 %
14.04.2022 17:00 22,3 C 22,3 C 22,7 C 58 % 1017,3 hPa 0,0 l/m 6,1 km/h (2 Bft) NW 323 10 min 0,304 mm 220 W/m 13,6 C 22,3 C 16,1 km/h (3 Bft) 97 %
14.04.2022 17:10 21,9 C 21,9 C 22,3 C 59 % 1017,4 hPa 0,0 l/m 6,5 km/h (2 Bft) NW 313 10 min 0,000 mm 272 W/m 13,5 C 21,9 C 16,1 km/h (3 Bft) 98 %
14.04.2022 17:20 21,6 C 21,6 C 21,9 C 59 % 1017,5 hPa 0,0 l/m 8,5 km/h (2 Bft) NW 305 10 min 0,000 mm 269 W/m 13,2 C 20,9 C 16,1 km/h (3 Bft) 97 %
14.04.2022 17:30 21,4 C 21,4 C 21,6 C 61 % 1017,6 hPa 0,0 l/m 10,3 km/h (2 Bft) N-NW 335 10 min 0,000 mm 227 W/m 13,6 C 20,1 C 19,3 km/h (3 Bft) 98 %
14.04.2022 17:40 21,2 C 21,2 C 21,4 C 60 % 1017,6 hPa 0,0 l/m 4,7 km/h (1 Bft) N-NW 337 10 min 0,000 mm 174 W/m 13,1 C 21,2 C 9,7 km/h (2 Bft) 97 %
14.04.2022 17:50 21,1 C 21,1 C 21,2 C 61 % 1017,6 hPa 0,0 l/m 2,3 km/h (1 Bft) N-NW 334 10 min 0,000 mm 179 W/m 13,3 C 21,1 C 9,7 km/h (2 Bft) 98 %
14.04.2022 18:00 20,7 C 20,7 C 21,1 C 62 % 1017,9 hPa 0,0 l/m 8,0 km/h (2 Bft) NW 319 0 min 0,178 mm 100 W/m 13,2 C 20,1 C 24,1 km/h (4 Bft) 97 %
14.04.2022 18:10 19,8 C 19,8 C 20,7 C 63 % 1018,2 hPa 0,0 l/m 15,1 km/h (3 Bft) NW 323 0 min 0,000 mm 65 W/m 12,5 C 17,0 C 24,1 km/h (4 Bft) 97 %
14.04.2022 18:20 18,8 C 18,8 C 19,8 C 65 % 1018,2 hPa 0,0 l/m 14,6 km/h (3 Bft) N-NW 328 0 min 0,000 mm 76 W/m 12,1 C 15,9 C 32,2 km/h (5 Bft) 97 %
14.04.2022 18:30 18,0 C 18,0 C 18,8 C 64 % 1018,1 hPa 0,0 l/m 8,9 km/h (2 Bft) N 350 0 min 0,000 mm 88 W/m 11,1 C 16,9 C 24,1 km/h (4 Bft) 97 %
14.04.2022 18:40 17,6 C 17,6 C 18,0 C 63 % 1018,1 hPa 0,0 l/m 6,8 km/h (2 Bft) N 351 0 min 0,000 mm 53 W/m 10,5 C 17,4 C 19,3 km/h (3 Bft) 97 %
14.04.2022 18:50 17,3 C 17,3 C 17,6 C 63 % 1018,5 hPa 0,0 l/m 5,1 km/h (1 Bft) N-NW 343 0 min 0,000 mm 40 W/m 10,2 C 17,3 C 16,1 km/h (3 Bft) 97 %
14.04.2022 19:00 16,9 C 16,9 C 17,3 C 64 % 1018,6 hPa 0,0 l/m 4,4 km/h (1 Bft) N 355 0 min 0,076 mm 25 W/m 10,0 C 16,9 C 19,3 km/h (3 Bft) 97 %
14.04.2022 19:10 16,6 C 16,6 C 16,9 C 66 % 1018,7 hPa 0,0 l/m 3,8 km/h (1 Bft) N-NW 340 0 min 0,000 mm 39 W/m 10,2 C 16,6 C 16,1 km/h (3 Bft) 97 %
14.04.2022 19:20 16,4 C 16,4 C 16,6 C 67 % 1018,8 hPa 0,0 l/m 3,8 km/h (1 Bft) N 5 0 min 0,000 mm 37 W/m 10,3 C 16,4 C 19,3 km/h (3 Bft) 97 %
14.04.2022 19:30 16,2 C 16,2 C 16,4 C 69 % 1018,9 hPa 0,0 l/m 5,4 km/h (1 Bft) N 350 0 min 0,000 mm 33 W/m 10,5 C 16,2 C 16,1 km/h (3 Bft) 97 %
14.04.2022 19:40 16,1 C 16,1 C 16,2 C 69 % 1019,1 hPa 0,0 l/m 6,9 km/h (2 Bft) N-NW 340 0 min 0,000 mm 28 W/m 10,4 C 15,8 C 24,1 km/h (4 Bft) 97 %
14.04.2022 19:50 15,9 C 15,9 C 16,1 C 69 % 1019,2 hPa 0,0 l/m 3,3 km/h (1 Bft) N 350 0 min 0,000 mm 25 W/m 10,2 C 15,9 C 11,3 km/h (2 Bft) 98 %
14.04.2022 20:00 15,8 C 15,8 C 15,9 C 70 % 1019,3 hPa 0,0 l/m 3,4 km/h (1 Bft) N-NW 333 0 min 0,051 mm 12 W/m 10,3 C 15,8 C 11,3 km/h (2 Bft) 97 %
14.04.2022 20:10 15,6 C 15,6 C 15,8 C 70 % 1019,3 hPa 0,0 l/m 2,7 km/h (1 Bft) N-NW 343 0 min 0,000 mm 0 W/m 10,1 C 15,6 C 11,3 km/h (2 Bft) 97 %
14.04.2022 20:20 15,4 C 15,4 C 15,6 C 70 % 1019,4 hPa 0,0 l/m 4,0 km/h (1 Bft) N-NW 334 0 min 0,000 mm 0 W/m 10,0 C 15,4 C 9,7 km/h (2 Bft) 97 %
14.04.2022 20:30 15,2 C 15,2 C 15,4 C 70 % 1019,6 hPa 0,0 l/m 0,9 km/h (0 Bft) N-NW 338 0 min 0,000 mm 0 W/m 9,8 C 15,2 C 6,4 km/h (2 Bft) 97 %
14.04.2022 20:40 15,1 C 15,1 C 15,2 C 70 % 1019,6 hPa 0,0 l/m 0,6 km/h (0 Bft) N-NW 342 0 min 0,000 mm 0 W/m 9,7 C 15,1 C 6,4 km/h (2 Bft) 98 %
14.04.2022 20:50 15,1 C 15,1 C 15,1 C 71 % 1019,9 hPa 0,0 l/m 0,0 km/h (0 Bft) N-NW 342 0 min 0,000 mm 0 W/m 9,9 C 15,1 C 1,6 km/h (1 Bft) 97 %
14.04.2022 21:00 14,9 C 14,9 C 15,1 C 71 % 1020,0 hPa 0,0 l/m 0,0 km/h (0 Bft) N-NW 342 0 min 0,000 mm 0 W/m 9,7 C 14,9 C 0,0 km/h (0 Bft) 98 %
14.04.2022 21:10 14,8 C 14,8 C 14,9 C 72 % 1020,1 hPa 0,0 l/m 0,0 km/h (0 Bft) N-NW 342 0 min 0,000 mm 0 W/m 9,8 C 14,8 C 0,0 km/h (0 Bft) 97 %
14.04.2022 21:20 14,7 C 14,7 C 14,8 C 72 % 1020,1 hPa 0,0 l/m 0,0 km/h (0 Bft) N-NW 342 0 min 0,000 mm 0 W/m 9,7 C 14,7 C 0,0 km/h (0 Bft) 98 %
14.04.2022 21:30 14,6 C 14,6 C 14,7 C 73 % 1020,1 hPa 0,0 l/m 0,0 km/h (0 Bft) N-NW 342 0 min 0,000 mm 0 W/m 9,8 C 14,6 C 0,0 km/h (0 Bft) 97 %
14.04.2022 21:40 14,4 C 14,4 C 14,6 C 73 % 1020,2 hPa 0,0 l/m 0,0 km/h (0 Bft) N-NW 342 0 min 0,000 mm 0 W/m 9,6 C 14,4 C 0,0 km/h (0 Bft) 97 %
14.04.2022 21:50 14,3 C 14,3 C 14,4 C 73 % 1020,1 hPa 0,0 l/m 0,0 km/h (0 Bft) N-NW 342 0 min 0,000 mm 0 W/m 9,5 C 14,3 C 0,0 km/h (0 Bft) 98 %
14.04.2022 22:00 14,1 C 14,1 C 14,3 C 74 % 1020,3 hPa 0,0 l/m 0,0 km/h (0 Bft) N-NW 342 0 min 0,026 mm 0 W/m 9,5 C 14,1 C 0,0 km/h (0 Bft) 97 %
14.04.2022 22:10 14,0 C 14,0 C 14,1 C 75 % 1020,2 hPa 0,0 l/m 0,0 km/h (0 Bft) N-NW 342 0 min 0,000 mm 0 W/m 9,6 C 14,0 C 0,0 km/h (0 Bft) 97 %
14.04.2022 22:20 13,8 C 13,8 C 14,0 C 73 % 1020,3 hPa 0,0 l/m 0,0 km/h (0 Bft) N-NW 342 0 min 0,000 mm 0 W/m 9,0 C 13,8 C 0,0 km/h (0 Bft) 97 %
14.04.2022 22:30 13,6 C 13,6 C 13,8 C 74 % 1020,4 hPa 0,0 l/m 0,0 km/h (0 Bft) N-NW 342 0 min 0,000 mm 0 W/m 9,1 C 13,6 C 0,0 km/h (0 Bft) 98 %
14.04.2022 22:40 13,4 C 13,4 C 13,6 C 76 % 1020,5 hPa 0,0 l/m 0,0 km/h (0 Bft) N-NW 342 0 min 0,000 mm 0 W/m 9,3 C 13,4 C 0,0 km/h (0 Bft) 97 %
14.04.2022 22:50 13,2 C 13,2 C 13,4 C 76 % 1020,6 hPa 0,0 l/m 0,0 km/h (0 Bft) N-NW 342 0 min 0,000 mm 0 W/m 9,1 C 13,2 C 0,0 km/h (0 Bft) 97 %
14.04.2022 23:00 13,2 C 13,2 C 13,2 C 77 % 1020,6 hPa 0,0 l/m 0,0 km/h (0 Bft) N-NW 342 0 min 0,025 mm 0 W/m 9,3 C 13,2 C 0,0 km/h (0 Bft) 98 %
14.04.2022 23:10 13,2 C 13,2 C 13,2 C 77 % 1020,5 hPa 0,0 l/m 0,0 km/h (0 Bft) N-NW 342 0 min 0,000 mm 0 W/m 9,3 C 13,2 C 0,0 km/h (0 Bft) 100 %
14.04.2022 23:20 13,0 C 13,0 C 13,2 C 76 % 1020,5 hPa 0,0 l/m 0,0 km/h (0 Bft) N-NW 342 0 min 0,000 mm 0 W/m 8,9 C 13,0 C 0,0 km/h (0 Bft) 100 %
14.04.2022 23:30 12,7 C 12,7 C 13,0 C 76 % 1020,6 hPa 0,0 l/m 0,0 km/h (0 Bft) N-NW 342 0 min 0,000 mm 0 W/m 8,6 C 12,7 C 0,0 km/h (0 Bft) 100 %
14.04.2022 23:40 12,4 C 12,4 C 12,7 C 78 % 1020,6 hPa 0,0 l/m 0,0 km/h (0 Bft) N-NW 342 0 min 0,000 mm 0 W/m 8,7 C 12,4 C 0,0 km/h (0 Bft) 100 %
14.04.2022 23:50 12,2 C 12,2 C 12,4 C 78 % 1020,6 hPa 0,0 l/m 0,0 km/h (0 Bft) N-NW 342 0 min 0,000 mm 0 W/m 8,5 C 12,2 C 0,0 km/h (0 Bft) 100 %
_ Min-Zeit 05:40 05:40 06:50 15:00 02:20 - 00:30 - - - - - 05:30 05:40 00:30 09:00
Minimum _ 7,3 C 7,3 C 7,3 C 56 % 1014,9 hPa - 0,0 km/h (0 Bft) - - - - - 5,5 C 7,3 C 0,0 km/h (0 Bft) 89 %
_ Max-Zeit 16:20 16:20 16:20 07:40 22:50 00:00 18:10 - - 08:40 13:00 13:00 14:50 15:00 18:20 00:00
Maximum _ 22,8 C 22,5 C 22,8 C 91 % 1020,6 hPa 0,0 l/m 15,1 km/h
NW (3 Bft)
- - 10 min 0,406 mm 891 W/m 14,4 C 22,4 C 32,2 km/h
N-NW (5 Bft)
100 %
Durchschnitt _ 14,4 C 14,2 C 14,5 C 75 % 1017,3 hPa #0,0 l/m 2,5 km/h (1 Bft) NW - #9:20 h #3,175 mm 375 W/m 9,7 C 14,3 C 6,6 km/h (2 Bft) 98 %
PRIVATE WETTERSTATION BILLIGHEIM-ALLFELD - www.neckar-odenwald-wetter.de - Holger Sonntag